Time;durP1;ratioP1;P1;durP2;ratioP2;P2;SDS_P1;SDS_P2;PMS_P1;PMS_P2;Temp;Humidity;BMP_temperature;BMP_pressure;BME280_temperature;BME280_humidity;BME280_pressure;Samples;Min_cycle;Max_cycle;Signal;HPM_P1;HPM_P2
2023/12/03 00:00:34;;;;;;;14.68;8.02;;;-0.80;99.90;;;;;;5033950;28;20203;-62
2023/12/03 00:03:02;;;;;;;9.35;7.95;;;-0.90;99.90;;;;;;5033596;28;20238;-61
2023/12/03 00:05:28;;;;;;;11.18;7.68;;;-0.90;99.90;;;;;;5033936;28;20306;-61
2023/12/03 00:07:55;;;;;;;10.40;7.90;;;-0.80;99.90;;;;;;5036235;28;20434;-60
2023/12/03 00:10:23;;;;;;;9.05;7.65;;;-0.80;99.90;;;;;;5034971;28;20452;-62
2023/12/03 00:12:50;;;;;;;9.55;8.55;;;-0.80;99.90;;;;;;5033843;28;20725;-62
2023/12/03 00:15:17;;;;;;;10.65;7.55;;;-0.80;99.90;;;;;;5033843;28;20207;-61
2023/12/03 00:17:44;;;;;;;9.77;7.80;;;-0.80;99.90;;;;;;5034609;28;20227;-59
2023/12/03 00:20:12;;;;;;;11.20;9.48;;;-0.80;99.90;;;;;;5036791;28;20294;-62
2023/12/03 00:22:39;;;;;;;9.63;8.30;;;-0.80;99.90;;;;;;5033897;28;20231;-61
2023/12/03 00:25:07;;;;;;;10.48;7.60;;;-0.80;99.90;;;;;;5033685;28;20200;-62
2023/12/03 00:27:34;;;;;;;11.27;8.48;;;-0.80;99.90;;;;;;5029814;28;20204;-59
2023/12/03 00:30:01;;;;;;;12.82;8.63;;;-0.80;99.90;;;;;;5038892;28;20207;-62
2023/12/03 00:32:27;;;;;;;9.85;8.85;;;-0.80;99.90;;;;;;5037813;28;20805;-61
2023/12/03 00:34:54;;;;;;;13.13;9.23;;;-0.80;99.90;;;;;;5037248;28;20237;-61
2023/12/03 00:37:23;;;;;;;10.13;9.13;;;-0.80;99.90;;;;;;5036814;28;20298;-62
2023/12/03 00:39:49;;;;;;;12.30;9.93;;;-0.80;99.90;;;;;;5038865;28;20206;-60
2023/12/03 00:42:16;;;;;;;8.90;7.78;;;-0.80;99.90;;;;;;5039331;28;20246;-60
2023/12/03 00:44:43;;;;;;;11.65;8.82;;;-0.70;99.90;;;;;;5037101;28;20199;-61
2023/12/03 00:47:10;;;;;;;11.27;8.90;;;-0.80;99.90;;;;;;5036739;28;20208;-61
2023/12/03 00:49:37;;;;;;;10.15;9.15;;;-0.70;99.90;;;;;;5036879;28;20223;-61
2023/12/03 00:52:04;;;;;;;17.20;10.45;;;-0.70;99.90;;;;;;5040293;28;20301;-61
2023/12/03 00:54:32;;;;;;;11.63;9.25;;;-0.70;99.90;;;;;;5037061;28;20320;-61
2023/12/03 00:56:59;;;;;;;11.43;8.75;;;-0.70;99.90;;;;;;5036815;28;20207;-62
2023/12/03 00:59:25;;;;;;;11.25;8.57;;;-0.70;99.90;;;;;;5036786;28;20199;-61
2023/12/03 01:01:52;;;;;;;12.32;9.05;;;-0.80;99.90;;;;;;5039136;28;20203;-62
2023/12/03 01:04:19;;;;;;;13.48;9.98;;;-0.80;99.90;;;;;;5038415;28;20325;-62
2023/12/03 01:06:46;;;;;;;11.80;8.75;;;-0.80;99.90;;;;;;5036766;28;20576;-58
2023/12/03 01:09:13;;;;;;;12.52;9.48;;;-0.80;99.90;;;;;;5036683;28;20219;-62
2023/12/03 01:11:42;;;;;;;9.98;8.13;;;-0.80;99.90;;;;;;5037149;28;20234;-61
2023/12/03 01:14:09;;;;;;;12.18;9.57;;;-0.80;99.90;;;;;;5039825;28;20306;-62
2023/12/03 01:16:36;;;;;;;17.45;12.32;;;-0.80;99.90;;;;;;5036586;28;20250;-60
2023/12/03 01:19:02;;;;;;;11.32;9.60;;;-0.80;99.90;;;;;;5036438;28;20716;-61
2023/12/03 01:21:29;;;;;;;11.18;10.02;;;-0.80;99.90;;;;;;5035583;28;20203;-61
2023/12/03 01:23:56;;;;;;;11.18;8.90;;;-0.80;99.90;;;;;;5039051;28;20965;-60
2023/12/03 01:26:23;;;;;;;12.20;10.93;;;-0.90;99.90;;;;;;5034771;28;20203;-62
2023/12/03 01:28:52;;;;;;;12.05;10.32;;;-0.90;99.90;;;;;;5035658;28;20317;-59
2023/12/03 01:31:19;;;;;;;11.65;9.55;;;-0.90;99.90;;;;;;5040259;28;20206;-59
2023/12/03 01:33:46;;;;;;;15.73;11.45;;;-1.00;99.90;;;;;;5038080;28;20618;-58
2023/12/03 01:36:13;;;;;;;15.57;10.30;;;-1.00;99.90;;;;;;5038138;28;20203;-61
2023/12/03 01:38:40;;;;;;;14.75;11.20;;;-1.00;99.90;;;;;;5040488;28;20207;-59
2023/12/03 01:41:08;;;;;;;15.48;12.52;;;-1.10;99.90;;;;;;5040672;28;20677;-61
2023/12/03 01:43:47;;;;;;;12.85;9.43;;;-1.10;99.90;;;;;;5030187;28;20223;-59
2023/12/03 01:46:16;;;;;;;13.57;11.65;;;-1.10;99.90;;;;;;5037608;28;20666;-60
2023/12/03 01:48:43;;;;;;;14.43;11.52;;;-1.20;99.90;;;;;;5040344;28;20229;-61
2023/12/03 01:51:11;;;;;;;11.10;9.48;;;-1.20;99.90;;;;;;5041165;28;20293;-61
2023/12/03 01:53:39;;;;;;;13.15;10.60;;;-1.20;99.90;;;;;;5037383;28;20752;-57
2023/12/03 01:56:07;;;;;;;16.88;11.70;;;-1.20;99.90;;;;;;5037782;28;20203;-59
2023/12/03 01:58:34;;;;;;;10.68;9.48;;;-1.20;99.90;;;;;;5039139;28;20290;-58
2023/12/03 02:01:01;;;;;;;15.73;10.68;;;-1.10;99.90;;;;;;5041300;28;20221;-60
2023/12/03 02:03:30;;;;;;;11.63;10.13;;;-1.10;99.90;;;;;;5030874;28;20713;-61
2023/12/03 02:06:04;;;;;;;12.50;9.93;;;-1.10;99.90;;;;;;5031957;28;20207;-61
2023/12/03 02:08:31;;;;;;;14.80;10.57;;;-1.20;99.90;;;;;;5031765;28;20237;-60
2023/12/03 02:10:59;;;;;;;15.30;11.05;;;-1.20;99.90;;;;;;5032101;28;20733;-58
2023/12/03 02:13:28;;;;;;;13.35;9.52;;;-1.20;99.90;;;;;;5030367;28;20232;-61
2023/12/03 02:15:55;;;;;;;14.63;10.95;;;-1.20;99.90;;;;;;5031709;28;20294;-61
2023/12/03 02:18:22;;;;;;;14.95;10.27;;;-1.20;99.90;;;;;;5031487;28;20326;-60
2023/12/03 02:20:50;;;;;;;15.23;11.18;;;-1.10;99.90;;;;;;5031393;28;20209;-60
2023/12/03 02:23:18;;;;;;;17.13;11.82;;;-1.10;99.90;;;;;;5031604;28;20238;-61
2023/12/03 02:25:45;;;;;;;11.82;10.57;;;-1.10;99.90;;;;;;5031644;28;20290;-61
2023/12/03 02:28:12;;;;;;;13.25;11.63;;;-1.00;99.90;;;;;;5031024;28;20244;-61
2023/12/03 02:30:38;;;;;;;17.00;11.55;;;-1.10;99.90;;;;;;5030761;28;20582;-59
2023/12/03 02:33:05;;;;;;;15.85;12.73;;;-1.00;99.90;;;;;;5030755;28;20227;-59
2023/12/03 02:35:32;;;;;;;15.18;11.27;;;-1.00;99.90;;;;;;5031662;28;20557;-60
2023/12/03 02:37:59;;;;;;;15.18;12.02;;;-1.00;99.90;;;;;;5031416;28;20207;-61
2023/12/03 02:40:27;;;;;;;13.93;11.32;;;-1.00;99.90;;;;;;5031446;28;20614;-61
2023/12/03 02:42:54;;;;;;;14.13;11.20;;;-1.00;99.90;;;;;;5031571;28;20233;-61
2023/12/03 02:45:21;;;;;;;16.85;11.48;;;-1.00;99.90;;;;;;5031620;28;20207;-59
2023/12/03 02:47:47;;;;;;;15.18;11.85;;;-1.00;99.90;;;;;;5031114;28;20211;-59
2023/12/03 02:50:14;;;;;;;14.25;11.82;;;-0.90;99.90;;;;;;5031181;28;20223;-60
2023/12/03 02:52:42;;;;;;;12.50;11.20;;;-0.90;99.90;;;;;;5030851;28;20314;-59
2023/12/03 02:55:09;;;;;;;11.40;8.68;;;-0.90;99.90;;;;;;5031160;28;20211;-61
2023/12/03 02:57:37;;;;;;;13.48;10.20;;;-0.90;99.90;;;;;;5030839;28;20729;-59
2023/12/03 03:00:06;;;;;;;14.57;10.98;;;-0.90;99.90;;;;;;5031542;28;20203;-59
2023/12/03 03:02:33;;;;;;;16.20;11.70;;;-0.90;99.90;;;;;;5031060;28;20597;-60
2023/12/03 03:05:00;;;;;;;13.45;10.43;;;-0.90;99.90;;;;;;5031071;28;20306;-58
2023/12/03 03:07:28;;;;;;;12.02;10.73;;;-0.90;99.90;;;;;;5030807;28;20213;-60
2023/12/03 03:09:55;;;;;;;12.68;10.77;;;-0.90;99.90;;;;;;5031205;28;20227;-60
2023/12/03 03:12:21;;;;;;;15.73;11.02;;;-0.90;99.90;;;;;;5030929;28;20735;-59
2023/12/03 03:14:50;;;;;;;14.20;10.43;;;-0.90;99.90;;;;;;5031040;28;20206;-61
2023/12/03 03:17:17;;;;;;;14.98;11.23;;;-0.90;99.90;;;;;;5030737;28;20295;-60
2023/12/03 03:19:44;;;;;;;13.88;10.20;;;-0.90;99.90;;;;;;5030893;28;20297;-58
2023/12/03 03:22:12;;;;;;;12.55;10.45;;;-0.80;99.90;;;;;;5030668;28;20226;-61
2023/12/03 03:24:39;;;;;;;13.68;10.60;;;-0.80;99.90;;;;;;5030911;28;20581;-59
2023/12/03 03:27:06;;;;;;;15.73;10.40;;;-0.90;99.90;;;;;;5030769;28;20649;-60
2023/12/03 03:29:33;;;;;;;13.05;9.70;;;-0.80;99.90;;;;;;5030914;28;20227;-60
2023/12/03 03:32:01;;;;;;;14.57;11.23;;;-0.90;99.90;;;;;;5030490;28;20290;-61
2023/12/03 03:34:28;;;;;;;18.83;10.63;;;-0.90;99.90;;;;;;5030886;28;20596;-61
2023/12/03 03:36:55;;;;;;;14.63;10.70;;;-0.90;99.90;;;;;;5030490;28;20211;-62
2023/12/03 03:39:22;;;;;;;16.17;11.63;;;-0.90;99.90;;;;;;5030546;28;20203;-59
2023/12/03 03:41:49;;;;;;;11.27;10.05;;;-0.90;99.90;;;;;;5030816;28;20229;-60
2023/12/03 03:44:15;;;;;;;14.07;11.07;;;-0.90;99.90;;;;;;5030418;28;20227;-59
2023/12/03 03:46:42;;;;;;;12.50;9.40;;;-1.00;99.90;;;;;;5030596;28;20203;-59
2023/12/03 03:49:10;;;;;;;11.98;9.32;;;-1.00;99.90;;;;;;5030323;28;20233;-61
2023/12/03 03:51:38;;;;;;;11.43;9.77;;;-1.00;99.90;;;;;;5030912;28;20295;-59
2023/12/03 03:54:05;;;;;;;12.40;10.98;;;-1.00;99.90;;;;;;5030417;28;20317;-59
2023/12/03 03:56:32;;;;;;;10.25;9.23;;;-1.00;99.90;;;;;;5030733;28;20207;-60
2023/12/03 03:58:59;;;;;;;13.77;9.52;;;-1.00;99.90;;;;;;5030544;28;20596;-60
2023/12/03 04:01:26;;;;;;;12.73;9.43;;;-1.00;99.90;;;;;;5029138;28;20281;-61
2023/12/03 04:03:53;;;;;;;13.30;9.90;;;-1.00;99.90;;;;;;5030405;28;20249;-60
2023/12/03 04:06:21;;;;;;;15.20;11.35;;;-1.00;99.90;;;;;;5034256;28;20227;-59
2023/12/03 04:08:48;;;;;;;11.70;10.15;;;-1.00;99.90;;;;;;5034072;28;20213;-61
2023/12/03 04:11:15;;;;;;;14.13;11.52;;;-1.00;99.90;;;;;;5034267;28;20211;-60
2023/12/03 04:13:41;;;;;;;13.88;11.95;;;-0.90;99.90;;;;;;5034134;28;20701;-60
2023/12/03 04:16:09;;;;;;;13.88;9.60;;;-0.90;99.90;;;;;;5034021;28;20210;-61
2023/12/03 04:18:38;;;;;;;17.67;11.85;;;-0.90;99.90;;;;;;5034123;28;20294;-61
2023/12/03 04:21:05;;;;;;;12.38;11.10;;;-0.90;99.90;;;;;;5034202;28;20203;-60
2023/12/03 04:23:34;;;;;;;14.75;13.05;;;-1.00;99.90;;;;;;5033918;28;20901;-60
2023/12/03 04:26:01;;;;;;;13.70;10.65;;;-1.00;99.90;;;;;;5034119;28;20674;-58
2023/12/03 04:28:28;;;;;;;12.88;10.70;;;-1.00;99.90;;;;;;5033660;28;20203;-61
2023/12/03 04:30:55;;;;;;;14.98;11.15;;;-1.00;99.90;;;;;;5033986;28;20226;-59
2023/12/03 04:33:22;;;;;;;16.65;12.23;;;-1.00;99.90;;;;;;5034146;28;20233;-58
2023/12/03 04:35:48;;;;;;;16.38;10.60;;;-1.00;99.90;;;;;;5033642;28;20699;-60
2023/12/03 04:38:15;;;;;;;15.20;10.57;;;-1.00;99.90;;;;;;5033617;28;20207;-60
2023/12/03 04:40:43;;;;;;;13.25;11.85;;;-1.10;99.90;;;;;;5033674;28;20204;-59
2023/12/03 04:43:10;;;;;;;14.98;10.93;;;-1.20;99.90;;;;;;5033514;28;20227;-61
2023/12/03 04:45:37;;;;;;;14.65;10.50;;;-1.20;99.90;;;;;;5033818;28;20210;-58
2023/12/03 04:48:05;;;;;;;16.10;11.35;;;-1.20;99.90;;;;;;5033529;28;20221;-60
2023/12/03 04:50:32;;;;;;;16.60;13.15;;;-1.20;99.90;;;;;;5033614;28;20717;-59
2023/12/03 04:52:59;;;;;;;13.85;12.52;;;-1.20;99.90;;;;;;5033502;28;20227;-60
2023/12/03 04:55:25;;;;;;;17.45;13.23;;;-1.30;99.90;;;;;;5032710;28;20230;-61
2023/12/03 04:57:54;;;;;;;16.42;13.05;;;-1.30;99.90;;;;;;5033347;28;20213;-59
2023/12/03 05:00:21;;;;;;;15.98;12.13;;;-1.40;99.90;;;;;;5032362;28;20290;-61
2023/12/03 05:02:47;;;;;;;14.70;10.63;;;-1.40;99.90;;;;;;5033270;28;20683;-59
2023/12/03 05:05:14;;;;;;;16.80;12.30;;;-1.50;99.90;;;;;;5033394;28;20213;-60
2023/12/03 05:07:41;;;;;;;18.25;12.05;;;-1.60;99.90;;;;;;5033022;28;20310;-60
2023/12/03 05:10:08;;;;;;;17.67;11.48;;;-1.60;99.90;;;;;;5033067;28;20322;-60
2023/12/03 05:12:35;;;;;;;19.55;15.40;;;-1.60;99.90;;;;;;5033159;28;20776;-58
2023/12/03 05:15:04;;;;;;;20.48;12.85;;;-1.70;99.90;;;;;;5033155;28;20297;-59
2023/12/03 05:17:31;;;;;;;15.15;12.15;;;-1.70;99.90;;;;;;5033027;28;20213;-59
2023/12/03 05:19:57;;;;;;;14.23;11.95;;;-1.70;99.90;;;;;;5033055;28;20203;-59
2023/12/03 05:22:25;;;;;;;17.48;14.27;;;-1.70;99.90;;;;;;5032772;28;20234;-58
2023/12/03 05:24:52;;;;;;;14.85;12.80;;;-1.70;99.90;;;;;;5032967;28;20207;-60
2023/12/03 05:27:19;;;;;;;21.00;13.05;;;-1.70;99.90;;;;;;5056020;22;20249;-58
2023/12/03 05:29:46;;;;;;;13.30;11.82;;;-1.70;99.90;;;;;;5033127;28;20237;-59
2023/12/03 05:32:14;;;;;;;17.70;14.57;;;-1.70;99.90;;;;;;5033658;28;20211;-58
2023/12/03 05:34:44;;;;;;;21.17;16.05;;;-1.60;99.90;;;;;;5033387;28;20297;-58
2023/12/03 05:37:12;;;;;;;17.58;12.63;;;-1.60;99.90;;;;;;5032809;28;20223;-58
2023/12/03 05:39:38;;;;;;;15.82;11.82;;;-1.60;99.90;;;;;;5033094;28;20734;-57
2023/12/03 05:42:05;;;;;;;18.75;14.48;;;-1.60;99.90;;;;;;5033644;28;20211;-54
2023/12/03 05:44:32;;;;;;;16.38;13.40;;;-1.70;99.90;;;;;;5033212;28;20294;-58
2023/12/03 05:47:00;;;;;;;20.15;14.23;;;-1.70;99.90;;;;;;5033007;28;20814;-58
2023/12/03 05:49:28;;;;;;;17.60;12.70;;;-1.60;99.90;;;;;;5033187;28;20262;-59
2023/12/03 05:51:55;;;;;;;21.25;12.60;;;-1.70;99.90;;;;;;5032902;28;20589;-57
2023/12/03 05:54:22;;;;;;;16.45;14.55;;;-1.70;99.90;;;;;;5032870;28;20298;-58
2023/12/03 05:56:49;;;;;;;21.65;15.95;;;-1.70;99.90;;;;;;5032955;28;20600;-55
2023/12/03 05:59:16;;;;;;;20.15;13.02;;;-1.60;99.90;;;;;;5033075;28;20302;-58
2023/12/03 06:01:43;;;;;;;19.02;15.40;;;-1.60;99.90;;;;;;5032732;28;20246;-57
2023/12/03 06:04:10;;;;;;;20.08;15.30;;;-1.60;99.90;;;;;;5032836;28;20213;-59
2023/12/03 06:06:38;;;;;;;20.88;16.13;;;-1.60;99.90;;;;;;5032398;28;20235;-59
2023/12/03 06:09:06;;;;;;;20.90;14.68;;;-1.60;99.90;;;;;;5032326;28;20203;-56
2023/12/03 06:11:33;;;;;;;19.30;13.52;;;-1.50;99.90;;;;;;5032619;28;20230;-53
2023/12/03 06:14:00;;;;;;;25.77;15.43;;;-1.50;99.90;;;;;;5032580;28;20203;-57
2023/12/03 06:16:26;;;;;;;24.05;16.63;;;-1.50;99.90;;;;;;5032347;28;20226;-59
2023/12/03 06:18:53;;;;;;;19.30;13.80;;;-1.50;99.90;;;;;;5032224;28;20297;-57
2023/12/03 06:21:20;;;;;;;20.83;14.95;;;-1.50;99.90;;;;;;5032172;28;20478;-57
2023/12/03 06:23:49;;;;;;;24.70;16.10;;;-1.40;99.90;;;;;;5032487;28;20217;-59
2023/12/03 06:26:15;;;;;;;25.17;16.80;;;-1.40;99.90;;;;;;5032148;28;20243;-58
2023/12/03 06:28:42;;;;;;;25.55;15.95;;;-1.40;99.90;;;;;;5031440;28;20733;-58
2023/12/03 06:31:09;;;;;;;23.00;15.13;;;-1.50;99.90;;;;;;5032239;28;20233;-58
2023/12/03 06:33:36;;;;;;;19.35;14.32;;;-1.40;99.90;;;;;;5032022;28;20213;-56
2023/12/03 06:36:03;;;;;;;23.05;16.85;;;-1.40;99.90;;;;;;5031747;28;20667;-58
2023/12/03 06:38:30;;;;;;;18.98;13.50;;;-1.50;99.90;;;;;;5032028;28;20213;-59
2023/12/03 06:40:58;;;;;;;22.73;14.82;;;-1.50;99.90;;;;;;5032055;28;20584;-58
2023/12/03 06:43:25;;;;;;;24.90;15.30;;;-1.40;99.90;;;;;;5031907;28;20297;-59
2023/12/03 06:45:52;;;;;;;22.30;15.80;;;-1.40;99.90;;;;;;5031643;28;20233;-58
2023/12/03 06:48:21;;;;;;;21.48;14.30;;;-1.50;99.90;;;;;;5031758;28;20320;-54
2023/12/03 06:50:47;;;;;;;23.42;16.48;;;-1.40;99.90;;;;;;5031705;28;20257;-58
2023/12/03 06:53:14;;;;;;;25.25;16.48;;;-1.40;99.90;;;;;;5032160;28;20305;-59
2023/12/03 06:55:41;;;;;;;25.52;17.05;;;-1.40;99.90;;;;;;5031944;28;20758;-59
2023/12/03 06:58:09;;;;;;;22.30;17.13;;;-1.40;99.90;;;;;;5031778;28;20213;-56
2023/12/03 07:00:36;;;;;;;21.15;14.48;;;-1.30;99.90;;;;;;5031864;28;20583;-56
2023/12/03 07:03:03;;;;;;;21.30;12.85;;;-1.30;99.90;;;;;;5031736;28;20234;-57
2023/12/03 07:05:29;;;;;;;23.08;15.23;;;-1.30;99.90;;;;;;5031456;28;20784;-58
2023/12/03 07:07:56;;;;;;;22.40;14.57;;;-1.30;99.90;;;;;;5031180;28;20265;-60
2023/12/03 07:10:23;;;;;;;25.02;16.63;;;-1.20;99.90;;;;;;5031528;28;20227;-57
2023/12/03 07:12:50;;;;;;;24.92;14.95;;;-1.20;99.90;;;;;;5031399;28;20768;-59
2023/12/03 07:15:19;;;;;;;22.20;16.67;;;-1.20;99.90;;;;;;5031392;28;20209;-58
2023/12/03 07:17:46;;;;;;;23.50;16.17;;;-1.20;99.90;;;;;;5031093;28;20213;-57
2023/12/03 07:20:13;;;;;;;24.65;15.90;;;-1.20;99.90;;;;;;5031529;28;20207;-58
2023/12/03 07:22:40;;;;;;;22.10;16.25;;;-1.20;99.90;;;;;;5031365;28;20295;-58
2023/12/03 07:25:08;;;;;;;26.60;16.15;;;-1.20;99.90;;;;;;5031068;28;20218;-58
2023/12/03 07:27:35;;;;;;;19.48;14.82;;;-1.20;99.90;;;;;;5031024;28;20215;-59
2023/12/03 07:30:02;;;;;;;23.35;17.70;;;-1.10;99.90;;;;;;5031297;28;20222;-59
2023/12/03 07:32:30;;;;;;;24.48;16.25;;;-1.10;99.90;;;;;;5031443;28;20217;-59
2023/12/03 07:34:57;;;;;;;21.13;16.33;;;-1.10;99.90;;;;;;5030937;28;20249;-59
2023/12/03 07:37:24;;;;;;;25.80;15.85;;;-1.10;99.90;;;;;;5030723;28;20230;-59
2023/12/03 07:39:51;;;;;;;22.40;15.02;;;-1.10;99.90;;;;;;5033018;28;20217;-59
2023/12/03 07:42:18;;;;;;;23.27;17.33;;;-1.10;99.90;;;;;;5035154;28;20584;-58
2023/12/03 07:44:46;;;;;;;28.70;17.23;;;-1.10;99.90;;;;;;5035181;28;20699;-56
2023/12/03 07:47:13;;;;;;;26.30;16.33;;;-1.10;99.90;;;;;;5035133;28;20234;-58
2023/12/03 07:49:41;;;;;;;23.75;17.48;;;-1.10;99.90;;;;;;5035151;28;20311;-59
2023/12/03 07:52:08;;;;;;;24.98;17.15;;;-1.10;99.90;;;;;;5035121;28;20249;-56
2023/12/03 07:54:35;;;;;;;25.88;17.65;;;-1.10;99.90;;;;;;5034978;28;20211;-58
2023/12/03 07:57:02;;;;;;;20.90;16.05;;;-1.10;99.90;;;;;;5034545;28;20310;-59
2023/12/03 07:59:29;;;;;;;20.55;15.25;;;-1.10;99.90;;;;;;5034967;28;20249;-59
2023/12/03 08:01:58;;;;;;;21.25;17.42;;;-1.10;99.90;;;;;;5035109;28;20298;-58
2023/12/03 08:04:25;;;;;;;30.20;19.17;;;-1.10;99.90;;;;;;5035097;28;20651;-56
2023/12/03 08:06:54;;;;;;;24.35;16.25;;;-1.10;99.90;;;;;;5034493;28;20314;-58
2023/12/03 08:09:21;;;;;;;26.58;16.30;;;-1.10;99.90;;;;;;5034750;28;20294;-59
2023/12/03 08:11:48;;;;;;;26.23;16.55;;;-1.10;99.90;;;;;;5034773;28;20226;-58
2023/12/03 08:14:15;;;;;;;29.80;18.23;;;-1.00;99.90;;;;;;5033461;28;20202;-55
2023/12/03 08:16:42;;;;;;;21.25;15.98;;;-1.00;99.90;;;;;;5026604;28;20219;-58
2023/12/03 08:19:09;;;;;;;20.35;15.18;;;-1.00;99.90;;;;;;5034449;28;20207;-59
2023/12/03 08:21:36;;;;;;;24.38;15.57;;;-1.00;99.90;;;;;;5034401;28;20209;-59
2023/12/03 08:24:05;;;;;;;24.85;17.83;;;-1.00;99.90;;;;;;5034816;28;20211;-58
2023/12/03 08:26:32;;;;;;;25.88;18.02;;;-0.90;99.90;;;;;;5034019;28;20323;-57
2023/12/03 08:28:59;;;;;;;21.70;14.88;;;-0.90;99.90;;;;;;5034325;28;20213;-58
2023/12/03 08:31:27;;;;;;;23.05;15.75;;;-0.80;99.90;;;;;;5034343;28;20227;-59
2023/12/03 08:33:54;;;;;;;19.85;14.55;;;-0.80;99.90;;;;;;5034645;28;20260;-57
2023/12/03 08:36:21;;;;;;;17.88;15.23;;;-0.80;99.90;;;;;;5034048;28;20695;-59
2023/12/03 08:38:48;;;;;;;24.20;17.00;;;-0.70;99.90;;;;;;5034068;28;20203;-58
2023/12/03 08:41:16;;;;;;;24.73;17.73;;;-0.70;99.90;;;;;;5033965;28;20235;-59
2023/12/03 08:43:43;;;;;;;25.60;16.35;;;-0.70;99.90;;;;;;5034329;28;20203;-60
2023/12/03 08:46:10;;;;;;;24.27;14.68;;;-0.70;99.90;;;;;;5033902;28;20763;-60
2023/12/03 08:48:37;;;;;;;24.38;15.18;;;-0.60;99.90;;;;;;5033791;28;20210;-57
2023/12/03 08:51:04;;;;;;;25.52;16.75;;;-0.60;99.90;;;;;;5033505;28;20222;-59
2023/12/03 08:53:31;;;;;;;26.85;18.10;;;-0.60;99.90;;;;;;5034149;28;20213;-59
2023/12/03 08:55:59;;;;;;;25.23;16.42;;;-0.60;99.90;;;;;;5033838;28;20226;-59
2023/12/03 08:58:28;;;;;;;20.67;15.00;;;-0.60;99.90;;;;;;5033859;28;20210;-57
2023/12/03 09:00:54;;;;;;;24.77;16.35;;;-0.60;99.90;;;;;;5033806;28;20205;-58
2023/12/03 09:03:21;;;;;;;20.38;17.20;;;-0.70;99.90;;;;;;5031875;28;20296;-59
2023/12/03 09:05:48;;;;;;;22.67;15.60;;;-0.70;99.90;;;;;;5033417;28;20230;-57
2023/12/03 09:08:15;;;;;;;21.60;17.00;;;-0.70;99.90;;;;;;5033082;28;20242;-59
2023/12/03 09:10:42;;;;;;;19.05;14.32;;;-0.70;99.90;;;;;;5033482;28;20608;-58
2023/12/03 09:13:08;;;;;;;25.15;17.67;;;-0.80;99.90;;;;;;5033341;28;20207;-60
2023/12/03 09:15:37;;;;;;;20.88;17.38;;;-0.80;99.90;;;;;;5033040;28;20231;-60
2023/12/03 09:18:04;;;;;;;23.90;15.98;;;-0.80;99.90;;;;;;5032951;28;20214;-56
2023/12/03 09:20:30;;;;;;;20.40;13.65;;;-0.80;99.90;;;;;;5033070;28;20212;-60
2023/12/03 09:22:57;;;;;;;23.17;15.45;;;-0.80;99.90;;;;;;5033343;28;20298;-59
2023/12/03 09:25:24;;;;;;;22.30;15.55;;;-0.80;99.90;;;;;;5033025;28;20241;-59
2023/12/03 09:27:51;;;;;;;25.13;16.67;;;-0.80;99.90;;;;;;5032519;28;20214;-58
2023/12/03 09:30:18;;;;;;;24.63;16.60;;;-0.80;99.90;;;;;;5033099;28;20208;-56
2023/12/03 09:32:47;;;;;;;19.60;15.45;;;-0.70;99.90;;;;;;5032909;28;20255;-56
2023/12/03 09:35:14;;;;;;;20.67;14.68;;;-0.70;99.90;;;;;;5031660;28;20681;-59
2023/12/03 09:37:40;;;;;;;23.15;15.45;;;-0.70;99.90;;;;;;5032556;28;20203;-58
2023/12/03 09:40:08;;;;;;;25.10;17.00;;;-0.70;99.90;;;;;;5031861;28;20204;-60
2023/12/03 09:42:39;;;;;;;21.50;15.23;;;-0.70;99.90;;;;;;5032657;28;20210;-58
2023/12/03 09:45:09;;;;;;;21.90;14.98;;;-0.70;99.90;;;;;;5031645;28;20239;-58
2023/12/03 09:47:37;;;;;;;23.00;14.88;;;-0.60;99.90;;;;;;5031505;28;20674;-59
2023/12/03 09:50:07;;;;;;;20.50;17.52;;;-0.60;99.90;;;;;;5032560;28;20214;-59
2023/12/03 09:52:36;;;;;;;21.75;15.25;;;-0.60;99.90;;;;;;5032412;28;20318;-59
2023/12/03 09:55:04;;;;;;;22.25;14.30;;;-0.60;99.90;;;;;;5031336;28;20203;-58
2023/12/03 09:57:31;;;;;;;22.67;15.90;;;-0.50;99.90;;;;;;5031776;28;20207;-58
2023/12/03 10:00:01;;;;;;;23.40;16.23;;;-0.50;99.90;;;;;;5031699;28;20294;-59
2023/12/03 10:02:29;;;;;;;26.95;16.67;;;-0.50;99.90;;;;;;5029364;28;20601;-58
2023/12/03 10:04:56;;;;;;;21.77;15.68;;;-0.40;99.90;;;;;;5031924;28;20235;-56
2023/12/03 10:07:27;;;;;;;27.38;15.23;;;-0.40;99.90;;;;;;5032027;28;20259;-57
2023/12/03 10:09:57;;;;;;;19.05;14.55;;;-0.40;99.90;;;;;;5031687;28;20639;-59
2023/12/03 10:12:26;;;;;;;22.88;15.80;;;-0.30;99.90;;;;;;5030519;28;20673;-59
2023/12/03 10:14:53;;;;;;;23.23;14.27;;;-0.30;99.90;;;;;;5032024;28;20214;-59
2023/12/03 10:17:20;;;;;;;20.73;14.15;;;-0.20;99.90;;;;;;5031367;28;20223;-59
2023/12/03 10:19:47;;;;;;;20.75;14.45;;;-0.20;99.90;;;;;;5029955;28;20645;-58
2023/12/03 10:22:15;;;;;;;21.17;14.15;;;-0.20;99.90;;;;;;5030845;28;20211;-60
2023/12/03 10:24:49;;;;;;;21.88;15.80;;;-0.10;99.90;;;;;;5031528;28;20309;-57
2023/12/03 10:27:17;;;;;;;22.83;16.10;;;0.00;99.90;;;;;;5029865;28;20230;-59
2023/12/03 10:29:43;;;;;;;16.35;13.05;;;0.10;99.90;;;;;;5027334;28;20227;-58
2023/12/03 10:32:10;;;;;;;23.00;16.98;;;0.20;99.90;;;;;;5030196;28;20847;-59
2023/12/03 10:34:43;;;;;;;24.90;15.52;;;0.40;99.90;;;;;;5031160;28;20211;-58
2023/12/03 10:37:10;;;;;;;17.88;14.02;;;0.50;99.90;;;;;;5030244;28;20227;-60
2023/12/03 10:39:38;;;;;;;20.48;13.90;;;0.70;99.90;;;;;;5031345;28;20293;-59
2023/12/03 10:42:08;;;;;;;17.10;13.57;;;0.80;99.90;;;;;;5030404;28;20213;-58
2023/12/03 10:44:39;;;;;;;23.58;16.08;;;1.00;99.90;;;;;;5027466;28;20209;-60
2023/12/03 10:47:07;;;;;;;20.55;14.75;;;1.20;99.90;;;;;;5027045;28;20227;-59
2023/12/03 10:49:34;;;;;;;21.10;16.00;;;1.30;99.90;;;;;;5031081;28;20212;-60
2023/12/03 10:52:02;;;;;;;21.33;14.48;;;1.40;99.90;;;;;;5029853;28;20309;-58
2023/12/03 10:54:29;;;;;;;21.88;14.77;;;1.50;99.90;;;;;;5030704;28;20302;-60
2023/12/03 10:56:56;;;;;;;20.00;16.05;;;1.60;99.90;;;;;;5030034;28;20230;-60
2023/12/03 10:59:29;;;;;;;24.05;14.80;;;1.80;99.90;;;;;;5030440;28;20199;-58
2023/12/03 11:01:58;;;;;;;19.65;13.90;;;1.90;99.90;;;;;;5030944;28;20199;-57
2023/12/03 11:04:36;;;;;;;17.35;13.65;;;1.90;99.90;;;;;;5030187;28;20673;-59
2023/12/03 11:07:07;;;;;;;15.70;14.02;;;1.90;99.90;;;;;;5030947;28;20234;-59
2023/12/03 11:09:36;;;;;;;23.45;14.60;;;1.90;99.90;;;;;;5031564;28;20211;-58
2023/12/03 11:12:04;;;;;;;21.55;15.38;;;1.90;99.90;;;;;;5031093;28;20600;-59
2023/12/03 11:14:33;;;;;;;18.17;13.27;;;1.90;99.90;;;;;;5030965;28;20214;-58
2023/12/03 11:17:14;;;;;;;17.50;12.73;;;1.90;99.90;;;;;;5030397;28;20334;-60
2023/12/03 11:19:43;;;;;;;19.15;13.70;;;1.90;99.90;;;;;;5031185;28;20269;-60
2023/12/03 11:22:22;;;;;;;22.02;15.52;;;1.90;99.90;;;;;;5030519;28;20233;-58
2023/12/03 11:24:56;;;;;;;19.00;12.93;;;1.80;99.90;;;;;;5030685;28;20245;-60
2023/12/03 11:27:25;;;;;;;22.02;13.85;;;1.70;99.90;;;;;;5030173;28;20844;-60
2023/12/03 11:29:54;;;;;;;18.90;12.75;;;1.70;99.90;;;;;;5030659;28;20210;-58
2023/12/03 11:32:24;;;;;;;18.80;14.13;;;1.60;99.90;;;;;;5031371;28;20231;-59
2023/12/03 11:34:56;;;;;;;20.27;14.18;;;1.60;99.90;;;;;;5031417;28;20648;-58
2023/12/03 11:37:25;;;;;;;17.40;12.80;;;1.50;99.90;;;;;;5030480;28;20231;-59
2023/12/03 11:39:54;;;;;;;24.52;14.90;;;1.50;99.90;;;;;;5031099;28;20210;-58
2023/12/03 11:42:24;;;;;;;16.52;12.25;;;1.50;99.90;;;;;;5028666;28;20310;-59
2023/12/03 11:44:51;;;;;;;17.23;13.23;;;1.50;99.90;;;;;;5031312;28;20301;-59
2023/12/03 11:47:20;;;;;;;16.73;13.80;;;1.50;99.90;;;;;;5030547;28;20234;-58
2023/12/03 11:49:47;;;;;;;16.58;13.00;;;1.50;99.90;;;;;;5029885;28;20837;-59
2023/12/03 11:52:15;;;;;;;18.83;12.82;;;1.60;99.90;;;;;;5021890;28;20612;-58
2023/12/03 11:54:51;;;;;;;18.75;14.10;;;1.70;99.90;;;;;;5030350;28;20238;-58
2023/12/03 11:57:18;;;;;;;18.10;13.80;;;1.80;99.90;;;;;;5027881;28;20862;-58
2023/12/03 11:59:45;;;;;;;18.52;13.55;;;1.90;99.90;;;;;;5020740;28;20703;-61
2023/12/03 12:02:13;;;;;;;17.08;13.55;;;2.00;99.90;;;;;;5028575;28;20724;-58
2023/12/03 12:04:41;;;;;;;17.00;12.70;;;2.30;99.90;;;;;;5028766;28;20301;-59
2023/12/03 12:07:16;;;;;;;19.63;14.63;;;2.50;99.90;;;;;;5029042;28;20227;-55
2023/12/03 12:09:43;;;;;;;16.15;12.52;;;2.80;99.90;;;;;;5030293;28;20206;-59
2023/12/03 12:12:10;;;;;;;19.48;14.10;;;3.20;99.90;;;;;;5030220;28;20223;-59
2023/12/03 12:14:37;;;;;;;17.45;13.40;;;3.50;99.90;;;;;;5030143;28;20302;-60
2023/12/03 12:17:04;;;;;;;18.13;14.63;;;3.80;99.90;;;;;;5029607;28;20306;-59
2023/12/03 12:19:31;;;;;;;15.07;12.65;;;4.20;99.90;;;;;;5029903;28;20291;-59
2023/12/03 12:21:59;;;;;;;15.65;12.65;;;4.40;99.90;;;;;;5029890;28;20214;-59
2023/12/03 12:24:26;;;;;;;17.27;14.48;;;4.90;99.90;;;;;;5029491;28;20223;-57
2023/12/03 12:26:54;;;;;;;18.63;13.70;;;5.20;99.90;;;;;;5032592;28;20233;-58
2023/12/03 12:29:22;;;;;;;19.45;13.07;;;5.60;99.90;;;;;;5033777;28;20198;-57
2023/12/03 12:31:49;;;;;;;15.40;12.70;;;6.10;99.70;;;;;;5033638;28;20219;-60